createdAt,value
2018-07-17T00:00:36.392Z,81.35
2018-07-17T00:03:06.462Z,81.35
2018-07-17T00:05:35.643Z,82.03
2018-07-17T00:08:06.247Z,81.58
2018-07-17T00:10:36.262Z,82.33
2018-07-17T00:13:06.924Z,82.00
2018-07-17T00:15:36.618Z,81.54
2018-07-17T00:18:06.708Z,81.93
2018-07-17T00:20:37.804Z,82.73
2018-07-17T00:23:09.212Z,81.98
2018-07-17T00:25:39.953Z,82.51
2018-07-17T00:28:10.372Z,82.69
2018-07-17T00:30:39.935Z,82.94
2018-07-17T00:33:10.122Z,83.28
2018-07-17T00:35:39.740Z,82.72
2018-07-17T00:38:10.634Z,82.04
2018-07-17T00:40:40.190Z,82.66
2018-07-17T00:43:09.698Z,82.70
2018-07-17T00:45:39.711Z,82.21
2018-07-17T00:48:09.190Z,81.79
2018-07-17T00:50:38.898Z,81.99
2018-07-17T00:53:09.552Z,82.08
2018-07-17T00:55:39.896Z,81.68
2018-07-17T00:58:09.505Z,82.10
2018-07-17T01:00:46.070Z,81.24
2018-07-17T01:03:20.997Z,81.88
2018-07-17T01:05:55.762Z,82.41
2018-07-17T01:08:30.366Z,83.14
2018-07-17T01:11:05.120Z,83.35
2018-07-17T01:13:55.982Z,83.50
2018-07-17T01:16:25.553Z,83.56
2018-07-17T01:18:55.069Z,82.22
2018-07-17T01:21:25.910Z,81.42
2018-07-17T01:23:55.438Z,81.26
2018-07-17T01:26:25.206Z,81.42
2018-07-17T01:28:55.644Z,82.64
2018-07-17T01:31:25.281Z,82.58
2018-07-17T01:33:55.693Z,81.92
2018-07-17T01:36:26.428Z,83.45
2018-07-17T01:38:55.970Z,83.75
2018-07-17T01:41:28.309Z,84.35
2018-07-17T01:43:58.121Z,84.62
2018-07-17T01:46:27.664Z,83.29
2018-07-17T01:48:58.485Z,83.14
2018-07-17T01:51:28.448Z,83.65
2018-07-17T01:53:59.493Z,83.26
2018-07-17T01:56:30.370Z,83.20
2018-07-17T01:59:00.814Z,83.63
2018-07-17T02:01:30.655Z,84.46
2018-07-17T02:04:00.112Z,83.85
2018-07-17T02:06:30.662Z,82.88
2018-07-17T02:09:01.064Z,83.57
2018-07-17T02:11:31.778Z,83.60
2018-07-17T02:14:02.349Z,83.60
2018-07-17T02:16:33.290Z,83.84
2018-07-17T02:19:03.862Z,82.84
2018-07-17T02:21:33.422Z,82.85
2018-07-17T02:24:03.675Z,83.50
2018-07-17T02:26:34.112Z,82.99
2018-07-17T02:29:03.597Z,83.33
2018-07-17T02:31:33.142Z,83.80
2018-07-17T02:34:02.340Z,83.38
2018-07-17T02:36:33.187Z,82.87
2018-07-17T02:39:02.590Z,84.54
2018-07-17T02:41:32.416Z,85.22
2018-07-17T02:44:02.967Z,85.74
2018-07-17T02:46:33.934Z,86.67
2018-07-17T02:49:03.457Z,85.08
2018-07-17T02:51:33.129Z,84.86
2018-07-17T02:54:02.991Z,84.13
2018-07-17T02:56:33.179Z,84.01
2018-07-17T02:59:03.078Z,83.83
2018-07-17T03:01:32.585Z,84.53
2018-07-17T03:04:02.266Z,84.52
2018-07-17T03:06:31.999Z,85.03
2018-07-17T03:09:03.420Z,85.35
2018-07-17T03:11:37.808Z,84.75
2018-07-17T03:14:09.709Z,86.55
2018-07-17T03:16:38.896Z,85.40
2018-07-17T03:19:09.554Z,85.60
2018-07-17T03:21:39.189Z,85.25
2018-07-17T03:24:08.988Z,85.10
2018-07-17T03:26:38.747Z,83.83
2018-07-17T03:29:08.516Z,84.32
2018-07-17T03:31:38.490Z,84.89
2018-07-17T03:34:08.299Z,84.34
2018-07-17T03:36:37.754Z,84.26
2018-07-17T03:39:08.917Z,83.65
2018-07-17T03:41:39.668Z,84.47
2018-07-17T03:44:09.480Z,85.25
2018-07-17T03:46:38.958Z,86.45
2018-07-17T03:49:08.800Z,86.09
2018-07-17T03:51:39.250Z,86.02
2018-07-17T03:54:09.452Z,85.55
2018-07-17T03:56:39.063Z,84.83
2018-07-17T03:59:09.169Z,85.22
2018-07-17T04:01:38.791Z,85.90
2018-07-17T04:04:08.518Z,85.96
2018-07-17T04:06:38.008Z,85.91
2018-07-17T04:09:08.685Z,85.74
2018-07-17T04:11:38.500Z,85.27
2018-07-17T04:14:08.096Z,84.71
2018-07-17T04:16:41.421Z,85.58
2018-07-17T04:19:11.389Z,85.82
2018-07-17T04:21:40.891Z,85.67
2018-07-17T04:24:10.662Z,85.68
2018-07-17T04:26:42.227Z,84.72
2018-07-17T04:29:11.688Z,84.38
2018-07-17T04:31:41.447Z,85.03
2018-07-17T04:34:11.322Z,85.27
2018-07-17T04:36:40.542Z,84.92
2018-07-17T04:39:13.017Z,84.80
2018-07-17T04:41:43.368Z,83.92
2018-07-17T04:44:12.960Z,84.27
2018-07-17T04:46:42.513Z,83.58
2018-07-17T04:49:12.511Z,84.94
2018-07-17T04:51:42.603Z,84.89
2018-07-17T04:54:13.389Z,84.26
2018-07-17T04:56:43.208Z,84.21
2018-07-17T04:59:12.782Z,84.44
2018-07-17T05:01:42.991Z,85.93
2018-07-17T05:04:12.431Z,86.09
2018-07-17T05:06:41.899Z,85.67
2018-07-17T05:09:11.625Z,85.14
2018-07-17T05:11:41.183Z,85.15
2018-07-17T05:14:11.172Z,84.45
2018-07-17T05:16:41.177Z,84.20
2018-07-17T05:19:10.711Z,83.19
2018-07-17T05:21:40.798Z,83.00
2018-07-17T05:24:10.645Z,81.85
2018-07-17T05:26:40.112Z,80.34
2018-07-17T05:29:09.764Z,79.42
2018-07-17T05:31:39.221Z,79.10
2018-07-17T05:34:08.876Z,79.61
2018-07-17T05:36:38.348Z,78.06
2018-07-17T05:39:10.158Z,76.98
2018-07-17T05:41:39.601Z,76.78
2018-07-17T05:44:09.232Z,76.49
2018-07-17T05:46:38.776Z,76.70
2018-07-17T05:49:08.360Z,76.38
2018-07-17T05:51:37.852Z,76.86
2018-07-17T05:54:07.347Z,76.58
2018-07-17T05:56:36.987Z,76.53
2018-07-17T05:59:06.480Z,76.00
2018-07-17T06:01:36.077Z,75.32
2018-07-17T06:04:05.907Z,75.03
2018-07-17T06:06:35.439Z,73.39
2018-07-17T06:09:06.268Z,73.96
2018-07-17T06:11:35.724Z,73.43
2018-07-17T06:14:05.280Z,72.45
2018-07-17T06:16:34.729Z,72.13
2018-07-17T06:19:04.395Z,72.36
2018-07-17T06:21:33.884Z,69.16
2018-07-17T06:24:03.358Z,69.41
2018-07-17T06:26:32.849Z,68.39
2018-07-17T06:29:02.310Z,67.78
2018-07-17T06:31:31.895Z,66.96
2018-07-17T06:34:01.729Z,66.32
2018-07-17T06:36:31.227Z,64.87
2018-07-17T06:39:00.706Z,64.92
2018-07-17T06:41:30.269Z,63.50
2018-07-17T06:43:59.733Z,63.01
2018-07-17T06:46:29.390Z,61.19
2018-07-17T06:48:58.906Z,59.44
2018-07-17T06:51:28.765Z,56.57
2018-07-17T06:53:58.203Z,58.91
2018-07-17T06:56:27.635Z,57.98
2018-07-17T06:58:57.071Z,55.25
2018-07-17T07:01:26.590Z,57.88
2018-07-17T07:03:56.050Z,56.96
2018-07-17T07:06:25.836Z,58.41
2018-07-17T07:08:55.858Z,58.93
2018-07-17T07:11:25.328Z,58.87
2018-07-17T07:13:55.766Z,59.24
2018-07-17T07:16:25.315Z,59.90
2018-07-17T07:18:54.725Z,58.33
2018-07-17T07:21:24.702Z,57.14
2018-07-17T07:23:54.153Z,56.37
2018-07-17T07:26:23.809Z,55.98
2018-07-17T07:28:53.523Z,57.45
2018-07-17T07:31:23.116Z,55.58
2018-07-17T07:33:52.743Z,56.85
2018-07-17T07:36:22.366Z,56.24
2018-07-17T07:38:51.810Z,55.72
2018-07-17T07:41:21.534Z,56.47
2018-07-17T07:43:51.186Z,57.50
2018-07-17T07:46:21.187Z,56.98
2018-07-17T07:48:50.797Z,54.91
2018-07-17T07:51:20.512Z,55.72
2018-07-17T07:53:50.023Z,56.09
2018-07-17T07:56:19.550Z,54.91
2018-07-17T07:58:50.045Z,55.00
2018-07-17T08:01:19.172Z,55.30
2018-07-17T08:03:49.449Z,54.63
2018-07-17T08:06:18.859Z,55.25
2018-07-17T08:08:48.284Z,55.10
2018-07-17T08:11:18.102Z,55.02
2018-07-17T08:13:47.598Z,57.31
2018-07-17T08:16:17.145Z,56.24
2018-07-17T08:18:47.033Z,53.83
2018-07-17T08:21:16.865Z,55.56
2018-07-17T08:23:46.824Z,55.15
2018-07-17T08:26:16.581Z,53.78
2018-07-17T08:28:46.511Z,53.97
2018-07-17T08:31:16.103Z,54.83
2018-07-17T08:33:46.103Z,52.89
2018-07-17T08:36:15.631Z,52.03
2018-07-17T08:38:45.070Z,54.17
2018-07-17T08:41:15.270Z,52.29
2018-07-17T08:43:45.170Z,52.60
2018-07-17T08:46:15.233Z,50.78
2018-07-17T08:48:44.382Z,52.44
2018-07-17T08:51:14.310Z,54.08
2018-07-17T08:53:44.166Z,53.31
2018-07-17T08:56:13.594Z,53.88
2018-07-17T08:58:43.126Z,52.00
2018-07-17T09:01:12.623Z,53.39
2018-07-17T09:03:42.278Z,53.18
2018-07-17T09:06:11.431Z,52.06
2018-07-17T09:08:40.936Z,48.57
2018-07-17T09:11:10.761Z,46.94
2018-07-17T09:13:40.254Z,46.86
2018-07-17T09:16:09.781Z,47.03
2018-07-17T09:18:39.873Z,47.61
2018-07-17T09:21:09.527Z,47.88
2018-07-17T09:23:40.521Z,47.91
2018-07-17T09:26:09.992Z,47.99
2018-07-17T09:28:39.296Z,45.10
2018-07-17T09:31:08.967Z,44.79
2018-07-17T09:33:38.599Z,45.03
2018-07-17T09:36:08.807Z,45.01
2018-07-17T09:38:38.427Z,45.30
2018-07-17T09:41:08.109Z,44.37
2018-07-17T09:43:37.534Z,43.85
2018-07-17T09:46:07.011Z,43.10
2018-07-17T09:48:36.549Z,42.80
2018-07-17T09:51:06.140Z,40.23
2018-07-17T09:53:35.768Z,39.84
2018-07-17T09:56:05.439Z,41.74
2018-07-17T09:58:34.977Z,41.36
2018-07-17T10:01:09.813Z,41.70
2018-07-17T10:03:39.442Z,41.59
2018-07-17T10:06:09.481Z,40.38
2018-07-17T10:08:39.180Z,44.39
2018-07-17T10:11:08.468Z,43.85
2018-07-17T10:13:38.535Z,39.16
2018-07-17T10:16:08.064Z,39.10
2018-07-17T10:18:38.005Z,39.06
2018-07-17T10:21:07.482Z,37.20
2018-07-17T10:23:37.331Z,37.08
2018-07-17T10:26:07.431Z,38.48
2018-07-17T10:28:36.970Z,37.52
2018-07-17T10:31:06.857Z,36.86
2018-07-17T10:33:36.717Z,37.62
2018-07-17T10:36:07.105Z,37.87
2018-07-17T10:38:37.222Z,37.02
2018-07-17T10:41:07.271Z,37.00
2018-07-17T10:43:37.611Z,36.83
2018-07-17T10:46:07.378Z,38.08
2018-07-17T10:48:36.848Z,36.59
2018-07-17T10:51:07.166Z,37.74
2018-07-17T10:53:36.606Z,36.52
2018-07-17T10:56:06.229Z,36.48
2018-07-17T10:58:35.728Z,36.45
2018-07-17T11:01:06.387Z,36.49
2018-07-17T11:03:37.730Z,35.26
2018-07-17T11:06:07.881Z,35.34
2018-07-17T11:08:38.883Z,35.63
2018-07-17T11:11:09.831Z,35.88
2018-07-17T11:13:39.441Z,35.39
2018-07-17T11:16:08.882Z,38.39
2018-07-17T11:18:38.421Z,35.37
2018-07-17T11:21:08.260Z,35.06
2018-07-17T11:23:43.858Z,36.83
2018-07-17T11:26:14.311Z,34.82
2018-07-17T11:28:43.728Z,36.60
2018-07-17T11:31:14.241Z,35.01
2018-07-17T11:33:43.785Z,34.89
2018-07-17T11:36:13.401Z,34.23
2018-07-17T11:38:43.072Z,34.91
2018-07-17T11:41:13.266Z,33.36
2018-07-17T11:43:43.322Z,34.09
2018-07-17T11:46:12.713Z,32.84
2018-07-17T11:48:43.057Z,33.54
2018-07-17T11:51:12.600Z,33.27
2018-07-17T11:53:41.834Z,31.44
2018-07-17T11:56:11.385Z,32.14
2018-07-17T11:58:40.989Z,34.05
2018-07-17T12:01:10.603Z,34.05
2018-07-17T12:03:40.673Z,34.05
2018-07-17T12:06:10.198Z,33.41
2018-07-17T12:08:39.899Z,35.00
2018-07-17T12:11:09.488Z,34.60
2018-07-17T12:13:39.030Z,35.73
2018-07-17T12:16:08.534Z,36.38
2018-07-17T12:18:38.355Z,34.77
2018-07-17T12:21:07.981Z,34.04
2018-07-17T12:23:37.519Z,33.93
2018-07-17T12:26:07.513Z,31.81
2018-07-17T12:28:37.305Z,31.60
2018-07-17T12:31:07.127Z,30.74
2018-07-17T12:33:36.646Z,27.30
2018-07-17T12:36:06.564Z,27.46
2018-07-17T12:38:36.362Z,26.43
2018-07-17T12:41:05.853Z,24.45
2018-07-17T12:43:35.993Z,26.81
2018-07-17T12:46:05.614Z,27.36
2018-07-17T12:48:35.077Z,26.80
2018-07-17T12:51:04.560Z,26.95
2018-07-17T12:53:34.095Z,25.35
2018-07-17T12:56:03.620Z,27.22
2018-07-17T12:58:33.145Z,26.22
2018-07-17T13:01:02.555Z,26.25
2018-07-17T13:03:32.153Z,26.01
2018-07-17T13:06:02.416Z,23.69
2018-07-17T13:08:32.424Z,22.25
2018-07-17T13:11:01.884Z,23.29
2018-07-17T13:13:32.230Z,21.42
2018-07-17T13:16:02.045Z,20.90
2018-07-17T13:18:31.578Z,22.07
2018-07-17T13:21:01.648Z,21.46
2018-07-17T13:23:31.179Z,20.20
2018-07-17T13:26:01.417Z,20.48
2018-07-17T13:28:30.989Z,19.94
2018-07-17T13:31:00.519Z,20.39
2018-07-17T13:33:29.959Z,20.04
2018-07-17T13:36:00.635Z,21.29
2018-07-17T13:38:30.749Z,20.45
2018-07-17T13:41:00.293Z,19.34
2018-07-17T13:43:30.329Z,18.70
2018-07-17T13:46:00.384Z,19.81
2018-07-17T13:48:29.909Z,17.90
2018-07-17T13:50:59.440Z,18.19
2018-07-17T13:53:29.012Z,18.06
2018-07-17T13:55:58.573Z,17.59
2018-07-17T13:58:28.041Z,17.83
2018-07-17T14:00:57.486Z,21.06
2018-07-17T14:03:28.369Z,19.46
2018-07-17T14:05:57.957Z,20.20
2018-07-17T14:08:27.612Z,19.42
2018-07-17T14:10:57.135Z,19.40
2018-07-17T14:13:26.426Z,19.17
2018-07-17T14:15:56.010Z,19.89
2018-07-17T14:18:25.537Z,18.68
2018-07-17T14:20:55.161Z,18.73
2018-07-17T14:23:25.067Z,18.54
2018-07-17T14:25:55.236Z,19.51
2018-07-17T14:28:24.797Z,18.91
2018-07-17T14:30:54.241Z,18.46
2018-07-17T14:33:23.767Z,17.33
2018-07-17T14:35:53.908Z,16.70
2018-07-17T14:38:23.416Z,16.72
2018-07-17T14:40:52.860Z,16.97
2018-07-17T14:43:22.137Z,18.13
2018-07-17T14:45:51.754Z,18.88
2018-07-17T14:48:21.878Z,18.62
2018-07-17T14:50:52.341Z,19.35
2018-07-17T14:53:21.962Z,18.41
2018-07-17T14:55:51.596Z,19.90
2018-07-17T14:58:21.128Z,19.09
2018-07-17T15:00:50.681Z,18.62
2018-07-17T15:03:20.701Z,19.64
2018-07-17T15:05:50.221Z,19.06
2018-07-17T15:08:19.740Z,19.04
2018-07-17T15:10:49.308Z,18.93
2018-07-17T15:13:19.015Z,16.97
2018-07-17T15:15:48.531Z,16.66
2018-07-17T15:18:17.775Z,17.84
2018-07-17T15:20:47.234Z,18.35
2018-07-17T15:23:16.803Z,17.64
2018-07-17T15:25:46.513Z,18.30
2018-07-17T15:28:16.003Z,17.69
2018-07-17T15:30:45.522Z,17.64
2018-07-17T15:33:14.911Z,17.27
2018-07-17T15:35:44.397Z,18.62
2018-07-17T15:38:14.026Z,18.54
2018-07-17T15:40:43.522Z,19.64
2018-07-17T15:43:13.073Z,18.48
2018-07-17T15:45:42.363Z,18.17
2018-07-17T15:48:12.164Z,19.58
2018-07-17T15:50:42.258Z,18.49
2018-07-17T15:53:12.387Z,18.26
2018-07-17T15:55:42.104Z,18.94
2018-07-17T15:58:12.661Z,17.16
2018-07-17T16:00:42.761Z,17.76
2018-07-17T16:03:12.594Z,17.95
2018-07-17T16:05:42.183Z,16.85
2018-07-17T16:08:11.616Z,16.52
2018-07-17T16:10:41.506Z,17.43
2018-07-17T16:13:11.413Z,18.74
2018-07-17T16:15:40.957Z,18.10
2018-07-17T16:18:10.169Z,18.49
2018-07-17T16:20:40.587Z,17.84
2018-07-17T16:23:10.338Z,18.43
2018-07-17T16:25:41.557Z,19.00
2018-07-17T16:28:12.996Z,17.13
2018-07-17T16:30:42.996Z,16.85
2018-07-17T16:33:13.858Z,15.43
2018-07-17T16:35:43.912Z,16.11
2018-07-17T16:38:14.190Z,16.80
2018-07-17T16:40:44.455Z,16.50
2018-07-17T16:43:14.315Z,15.98
2018-07-17T16:45:43.814Z,16.03
2018-07-17T16:48:13.414Z,15.92
2018-07-17T16:50:42.957Z,18.29
2018-07-17T16:53:12.959Z,16.67
2018-07-17T16:55:43.048Z,16.31
2018-07-17T16:58:12.639Z,17.25
2018-07-17T17:00:42.771Z,16.59
2018-07-17T17:03:15.570Z,16.71
2018-07-17T17:05:45.664Z,17.79
2018-07-17T17:08:16.189Z,19.69
2018-07-17T17:10:45.940Z,21.87
2018-07-17T17:13:15.388Z,22.33
2018-07-17T17:15:44.905Z,22.13
2018-07-17T17:18:14.681Z,23.44
2018-07-17T17:20:45.937Z,23.86
2018-07-17T17:23:15.592Z,25.94
2018-07-17T17:25:45.201Z,25.57
2018-07-17T17:28:14.849Z,25.74
2018-07-17T17:30:44.890Z,26.52
2018-07-17T17:33:14.976Z,26.67
2018-07-17T17:35:45.166Z,26.37
2018-07-17T17:38:15.646Z,23.09
2018-07-17T17:40:46.410Z,21.89
2018-07-17T17:43:16.078Z,21.42
2018-07-17T17:45:45.570Z,21.79
2018-07-17T17:48:17.144Z,20.43
2018-07-17T17:50:46.930Z,21.54
2018-07-17T17:53:17.810Z,20.89
2018-07-17T17:55:47.621Z,22.20
2018-07-17T17:58:17.651Z,22.32
2018-07-17T18:00:47.883Z,22.85
2018-07-17T18:03:17.980Z,21.99
2018-07-17T18:05:47.312Z,23.81
2018-07-17T18:08:16.577Z,22.89
2018-07-17T18:10:46.128Z,23.36
2018-07-17T18:13:16.055Z,24.19
2018-07-17T18:15:46.865Z,23.66
2018-07-17T18:18:16.661Z,23.28
2018-07-17T18:20:46.767Z,23.63
2018-07-17T18:23:16.842Z,23.66
2018-07-17T18:25:47.738Z,23.94
2018-07-17T18:28:17.513Z,23.74
2018-07-17T18:30:47.347Z,24.83
2018-07-17T18:33:16.937Z,24.17
2018-07-17T18:35:47.991Z,24.19
2018-07-17T18:38:17.543Z,26.09
2018-07-17T18:40:47.408Z,25.20
2018-07-17T18:43:16.877Z,25.01
2018-07-17T18:45:47.027Z,24.99
2018-07-17T18:48:18.438Z,25.85
2018-07-17T18:50:48.943Z,25.91
2018-07-17T18:53:18.609Z,26.13
2018-07-17T18:55:48.222Z,26.31
2018-07-17T18:58:17.788Z,26.17
2018-07-17T19:00:47.389Z,26.80
2018-07-17T19:03:17.497Z,27.13
2018-07-17T19:05:47.552Z,28.12
2018-07-17T19:08:17.923Z,27.92
2018-07-17T19:10:47.451Z,28.07
2018-07-17T19:13:17.147Z,27.63
2018-07-17T19:15:46.735Z,27.91
2018-07-17T19:18:16.778Z,29.22
2018-07-17T19:20:47.518Z,36.73
2018-07-17T19:23:17.833Z,45.79
2018-07-17T19:25:47.839Z,50.92
2018-07-17T19:28:17.469Z,53.47
2018-07-17T19:30:47.115Z,55.23
2018-07-17T19:33:17.297Z,57.54
2018-07-17T19:35:47.218Z,58.88
2018-07-17T19:38:16.748Z,58.90
2018-07-17T19:40:48.341Z,58.38
2018-07-17T19:43:17.785Z,58.34
2018-07-17T19:45:47.389Z,59.79
2018-07-17T19:48:17.613Z,60.14
2018-07-17T19:50:47.117Z,61.28
2018-07-17T19:53:16.726Z,61.41
2018-07-17T19:55:46.531Z,62.23
2018-07-17T19:58:16.004Z,61.78
2018-07-17T20:00:45.665Z,62.29
2018-07-17T20:03:15.248Z,62.13
2018-07-17T20:05:44.753Z,62.16
2018-07-17T20:08:14.413Z,61.96
2018-07-17T20:10:43.910Z,62.05
2018-07-17T20:13:13.483Z,62.00
2018-07-17T20:15:42.981Z,61.24
2018-07-17T20:18:13.138Z,61.92
2018-07-17T20:20:42.667Z,62.39
2018-07-17T20:23:12.071Z,62.42
2018-07-17T20:25:41.319Z,62.65
2018-07-17T20:28:10.856Z,62.35
2018-07-17T20:30:42.917Z,62.52
2018-07-17T20:33:12.425Z,62.75
2018-07-17T20:35:43.011Z,62.59
2018-07-17T20:38:13.363Z,63.04
2018-07-17T20:40:43.045Z,63.93
2018-07-17T20:43:12.520Z,63.63
2018-07-17T20:45:42.557Z,63.31
2018-07-17T20:48:12.159Z,63.48
2018-07-17T20:50:41.780Z,63.30
2018-07-17T20:53:11.853Z,63.31
2018-07-17T20:55:42.691Z,63.17
2018-07-17T20:58:13.162Z,63.53
2018-07-17T21:00:43.688Z,63.30
2018-07-17T21:03:13.833Z,63.48
2018-07-17T21:05:43.427Z,63.27
2018-07-17T21:08:12.906Z,63.27
2018-07-17T21:10:42.341Z,63.91
2018-07-17T21:13:11.923Z,63.88
2018-07-17T21:15:41.390Z,64.12
2018-07-17T21:18:10.937Z,64.32
2018-07-17T21:20:41.572Z,64.85
2018-07-17T21:23:10.839Z,65.05
2018-07-17T21:25:41.925Z,65.29
2018-07-17T21:28:11.295Z,65.47
2018-07-17T21:30:41.347Z,65.62
2018-07-17T21:33:10.657Z,65.34
2018-07-17T21:35:40.143Z,64.95
2018-07-17T21:38:09.603Z,65.62
2018-07-17T21:40:39.099Z,65.81
2018-07-17T21:43:08.509Z,65.46
2018-07-17T21:45:38.082Z,66.06
2018-07-17T21:48:07.861Z,65.71
2018-07-17T21:50:38.537Z,66.24
2018-07-17T21:53:08.515Z,66.23
2018-07-17T21:55:37.987Z,66.44
2018-07-17T21:58:07.431Z,67.23
2018-07-17T22:00:37.026Z,67.32
2018-07-17T22:03:06.497Z,67.40
2018-07-17T22:05:36.374Z,68.33
2018-07-17T22:08:06.736Z,67.88
2018-07-17T22:10:37.255Z,67.09
2018-07-17T22:13:06.649Z,67.63
2018-07-17T22:15:35.896Z,67.55
2018-07-17T22:18:05.704Z,67.01
2018-07-17T22:20:36.212Z,67.15
2018-07-17T22:23:06.176Z,67.49
2018-07-17T22:25:35.931Z,67.59
2018-07-17T22:28:05.704Z,67.79
2018-07-17T22:30:35.165Z,67.78
2018-07-17T22:33:04.609Z,68.56
2018-07-17T22:35:34.053Z,68.05
2018-07-17T22:38:05.472Z,67.95
2018-07-17T22:40:36.219Z,68.38
2018-07-17T22:43:05.977Z,68.34
2018-07-17T22:45:35.408Z,68.79
2018-07-17T22:48:05.038Z,68.74
2018-07-17T22:50:34.613Z,69.31
2018-07-17T22:53:04.312Z,69.53
2018-07-17T22:55:34.952Z,70.38
2018-07-17T22:58:04.574Z,71.01
2018-07-17T23:00:34.113Z,71.05
2018-07-17T23:03:03.996Z,72.03
2018-07-17T23:05:33.474Z,72.20
2018-07-17T23:08:02.994Z,72.29
2018-07-17T23:10:32.542Z,71.57
2018-07-17T23:13:04.048Z,72.06
2018-07-17T23:15:34.000Z,71.71
2018-07-17T23:18:03.484Z,72.14
2018-07-17T23:20:34.656Z,72.21
2018-07-17T23:23:04.173Z,72.64
2018-07-17T23:25:34.613Z,72.74
2018-07-17T23:28:04.913Z,72.56
2018-07-17T23:30:34.393Z,74.35
2018-07-17T23:33:04.482Z,76.30
2018-07-17T23:35:34.022Z,78.96
2018-07-17T23:38:04.254Z,79.96
2018-07-17T23:40:33.710Z,79.68
2018-07-17T23:43:03.130Z,80.98
2018-07-17T23:45:32.593Z,81.82
2018-07-17T23:48:02.275Z,82.42
2018-07-17T23:50:31.863Z,81.38
2018-07-17T23:53:01.408Z,81.21
2018-07-17T23:55:31.516Z,79.85
2018-07-17T23:58:01.483Z,80.01
